Erie International Airport

Airport
ICAO code: 
KERI
Summary
ICAO Region: 
NAM
Territory: 
Location: 
Erie, Pennsylvania,
Elevation: 
732 ft
Coordinates: 
Aerial View: 
42° 4' 55.276" N, 80° 10' 34.378" W
Airport GND: 
Aircraft Ground De/Anti Icing
Airport RE: 
Landing on Contaminated Runways
Metar
Observation
KERI 060851Z AUTO 17013G22KT 10SM SCT040 BKN080 BKN090 13/07 A2963 RMK AO2 PK WND 19027/0822 SLP035 T01280072 58019
Station
Erie, Erie International Airport
Date/Time
2021-12-06 08:51:00
Wind direction
170°
Wind speed
13 kts
Lowest cloud amount
scattered clouds
Temperature
12.8°C
Dew point
7.2°C
Humidity
68%
Weather condition
n/a

Description

Erie International Airport, also known as Tom Ridge Field, is a public use airport located 8 km southwest of the central business district of Erie, a city in Erie County, Pennsylvania.

Climatology

Humid Continental climate (Köppen climate classification Dfa) - Variable weather patterns and a large seasonal temperature variance. Summers are often warm and humid with frequent thunderstorms and winters can be very cold with frequent snowfall and persistent snow cover.

Runways

Designator Length Width Surface Rops
2/20 1069 46 ASP Yes/Yes
6/24 1981 46 ASP Yes/Yes
Airport map: 
Aerial View: 

SKYbrary Partners:

Safety knowledge contributed by: